Time;durP1;ratioP1;P1;durP2;ratioP2;P2;SDS_P1;SDS_P2;PMS_P1;PMS_P2;Temp;Humidity;BMP_temperature;BMP_pressure;BME280_temperature;BME280_humidity;BME280_pressure;Samples;Min_cycle;Max_cycle;Signal;HPM_P1;HPM_P2
2023/08/25 00:01:52;;;;;;;514.28;487.38;;;;;;;;;;4941450;28;20276;-78
2023/08/25 00:04:19;;;;;;;542.40;515.25;;;;;;;;;;4956853;28;20308;-78
2023/08/25 00:06:45;;;;;;;616.67;585.95;;;;;;;;;;4951549;28;20315;-78
2023/08/25 00:09:12;;;;;;;480.23;453.67;;;;;;;;;;4955903;28;20219;-79
2023/08/25 00:11:39;;;;;;;213.25;195.75;;;;;;;;;;4950542;28;20233;-78
2023/08/25 00:14:06;;;;;;;273.77;254.93;;;;;;;;;;4956710;28;20426;-78
2023/08/25 00:16:33;;;;;;;317.65;296.55;;;;;;;;;;4954822;28;20316;-79
2023/08/25 00:18:59;;;;;;;394.33;372.63;;;;;;;;;;4963015;28;20304;-78
2023/08/25 00:21:26;;;;;;;428.38;404.58;;;;;;;;;;4952640;28;20248;-78
2023/08/25 00:23:53;;;;;;;379.48;360.80;;;;;;;;;;4958429;28;20245;-78
2023/08/25 00:26:20;;;;;;;664.08;628.63;;;;;;;;;;4956664;28;20239;-78
2023/08/25 00:28:46;;;;;;;660.53;622.75;;;;;;;;;;4953134;28;20292;-79
2023/08/25 00:31:13;;;;;;;742.58;700.35;;;;;;;;;;4962964;28;20248;-78
2023/08/25 00:33:47;;;;;;;744.45;699.47;;;;;;;;;;4949428;28;20233;-76
2023/08/25 00:36:14;;;;;;;784.55;739.55;;;;;;;;;;4962577;28;20331;-76
2023/08/25 00:38:41;;;;;;;732.88;691.90;;;;;;;;;;4955860;28;20225;-76
2023/08/25 00:41:08;;;;;;;776.63;731.20;;;;;;;;;;4956672;28;20312;-75
2023/08/25 00:43:34;;;;;;;775.55;728.53;;;;;;;;;;4949728;28;20229;-76
2023/08/25 00:46:01;;;;;;;782.28;738.55;;;;;;;;;;4954154;28;20252;-76
2023/08/25 00:48:28;;;;;;;692.33;652.67;;;;;;;;;;4950533;28;20707;-76
2023/08/25 00:50:55;;;;;;;731.80;692.13;;;;;;;;;;4952777;28;20252;-76
2023/08/25 00:53:22;;;;;;;626.65;594.33;;;;;;;;;;4963237;28;20244;-75
2023/08/25 00:55:49;;;;;;;577.58;547.47;;;;;;;;;;4958836;28;20256;-77
2023/08/25 00:58:16;;;;;;;629.55;598.53;;;;;;;;;;4953306;28;20233;-77
2023/08/25 01:00:43;;;;;;;563.05;533.30;;;;;;;;;;4951231;28;20253;-75
2023/08/25 01:03:10;;;;;;;501.80;474.65;;;;;;;;;;4947320;28;20323;-76
2023/08/25 01:05:39;;;;;;;403.95;380.73;;;;;;;;;;4940935;28;20236;-77
2023/08/25 01:08:05;;;;;;;438.15;415.15;;;;;;;;;;4960234;28;20256;-77
2023/08/25 01:10:45;;;;;;;423.25;397.60;;;;;;;;;;4943992;28;20248;-76
2023/08/25 01:13:18;;;;;;;513.85;483.88;;;;;;;;;;4953532;28;20313;-76
2023/08/25 01:15:46;;;;;;;796.20;751.72;;;;;;;;;;4955383;28;20264;-77
2023/08/25 01:18:16;;;;;;;734.38;695.40;;;;;;;;;;4961643;28;20629;-75
2023/08/25 01:20:45;;;;;;;725.72;688.13;;;;;;;;;;4954354;28;20245;-75
2023/08/25 01:23:17;;;;;;;664.80;630.03;;;;;;;;;;4956254;28;20245;-77
2023/08/25 01:25:44;;;;;;;599.00;566.20;;;;;;;;;;4946998;28;20277;-76
2023/08/25 01:28:10;;;;;;;562.35;533.10;;;;;;;;;;4962930;28;20229;-75
2023/08/25 01:30:37;;;;;;;702.00;663.40;;;;;;;;;;4961195;28;20233;-76
2023/08/25 01:33:04;;;;;;;760.97;719.13;;;;;;;;;;4954946;28;20229;-76
2023/08/25 01:35:57;;;;;;;708.78;667.70;;;;;;;;;;4952926;28;20320;-76
2023/08/25 01:38:27;;;;;;;699.95;662.85;;;;;;;;;;4939300;28;20232;-76
2023/08/25 01:40:58;;;;;;;572.13;542.08;;;;;;;;;;4956715;28;20248;-76
2023/08/25 01:43:29;;;;;;;517.13;489.95;;;;;;;;;;4956727;28;20720;-77
2023/08/25 01:45:56;;;;;;;446.30;424.40;;;;;;;;;;4958860;28;20323;-75
2023/08/25 01:48:24;;;;;;;409.80;388.77;;;;;;;;;;4957516;28;20320;-76
2023/08/25 01:50:50;;;;;;;299.13;283.52;;;;;;;;;;4942165;28;20292;-76
2023/08/25 01:53:17;;;;;;;423.40;402.42;;;;;;;;;;4956428;28;20231;-75
2023/08/25 01:55:43;;;;;;;501.50;476.15;;;;;;;;;;4954006;28;20236;-77
2023/08/25 01:58:13;;;;;;;425.85;402.33;;;;;;;;;;4960827;28;20232;-76
2023/08/25 02:00:39;;;;;;;468.48;440.90;;;;;;;;;;4952478;28;20279;-76
2023/08/25 02:03:06;;;;;;;444.27;420.48;;;;;;;;;;4964555;28;20233;-77
2023/08/25 02:05:33;;;;;;;402.30;375.05;;;;;;;;;;4952124;28;20268;-77
2023/08/25 02:07:59;;;;;;;427.00;403.60;;;;;;;;;;4960034;28;20321;-77
2023/08/25 02:10:26;;;;;;;399.83;377.05;;;;;;;;;;4940742;28;20236;-78
2023/08/25 02:12:52;;;;;;;365.48;344.85;;;;;;;;;;4966170;28;20684;-78
2023/08/25 02:15:19;;;;;;;419.35;396.42;;;;;;;;;;4960923;28;20233;-78
2023/08/25 02:17:45;;;;;;;503.70;477.40;;;;;;;;;;4937027;28;20601;-76
2023/08/25 02:20:12;;;;;;;487.30;461.15;;;;;;;;;;4955366;28;20231;-77
2023/08/25 02:22:39;;;;;;;412.08;390.02;;;;;;;;;;4952557;28;20695;-76
2023/08/25 02:25:06;;;;;;;418.67;396.70;;;;;;;;;;4959845;28;20233;-76
2023/08/25 02:27:33;;;;;;;403.65;381.42;;;;;;;;;;4946944;28;20307;-76
2023/08/25 02:29:59;;;;;;;390.17;368.70;;;;;;;;;;4967297;28;20229;-75
2023/08/25 02:32:26;;;;;;;403.02;378.67;;;;;;;;;;4952365;28;20320;-77
2023/08/25 02:34:53;;;;;;;342.65;324.30;;;;;;;;;;4958370;28;20241;-77
2023/08/25 02:37:19;;;;;;;317.83;301.33;;;;;;;;;;4963445;28;20229;-77
2023/08/25 02:39:46;;;;;;;318.52;302.05;;;;;;;;;;4958962;28;20229;-76
2023/08/25 02:42:12;;;;;;;244.35;229.45;;;;;;;;;;4965966;28;20221;-76
2023/08/25 02:44:39;;;;;;;415.80;390.70;;;;;;;;;;4957252;28;20236;-77
2023/08/25 02:47:05;;;;;;;349.38;331.90;;;;;;;;;;4957534;28;20640;-76
2023/08/25 02:49:32;;;;;;;401.02;375.92;;;;;;;;;;4964901;28;20228;-76
2023/08/25 02:51:59;;;;;;;337.42;318.58;;;;;;;;;;4957036;28;20225;-76
2023/08/25 02:54:25;;;;;;;352.02;331.55;;;;;;;;;;4937113;28;20232;-76
2023/08/25 02:56:53;;;;;;;394.83;374.90;;;;;;;;;;4940352;28;20271;-75
2023/08/25 02:59:19;;;;;;;425.23;402.77;;;;;;;;;;4958219;28;20226;-76
2023/08/25 03:01:46;;;;;;;391.98;372.23;;;;;;;;;;4937119;28;20228;-77
2023/08/25 03:04:12;;;;;;;315.98;298.48;;;;;;;;;;4957851;28;20337;-75
2023/08/25 03:06:39;;;;;;;53.85;17.05;;;;;;;;;;4949992;28;20226;-75
2023/08/25 03:09:06;;;;;;;92.28;84.43;;;;;;;;;;4956940;28;20237;-76
2023/08/25 03:11:33;;;;;;;81.80;73.38;;;;;;;;;;4948047;28;20226;-77
2023/08/25 03:13:59;;;;;;;32.92;7.25;;;;;;;;;;4953579;28;20260;-76
2023/08/25 03:16:26;;;;;;;44.13;10.27;;;;;;;;;;4937109;28;20233;-77
2023/08/25 03:18:52;;;;;;;35.45;7.53;;;;;;;;;;4953145;28;20712;-77
2023/08/25 03:21:19;;;;;;;26.10;6.10;;;;;;;;;;4958958;28;20220;-77
2023/08/25 03:23:46;;;;;;;33.50;7.18;;;;;;;;;;4950207;28;20244;-77
2023/08/25 03:26:12;;;;;;;73.38;67.10;;;;;;;;;;4958671;28;20233;-77
2023/08/25 03:28:39;;;;;;;64.68;16.13;;;;;;;;;;4952588;28;20229;-76
2023/08/25 03:31:05;;;;;;;28.08;5.88;;;;;;;;;;4955131;28;20240;-78
2023/08/25 03:33:32;;;;;;;28.45;6.95;;;;;;;;;;4936480;28;20240;-77
2023/08/25 03:35:58;;;;;;;20.20;5.18;;;;;;;;;;4959116;28;20256;-78
2023/08/25 03:38:25;;;;;;;25.77;6.25;;;;;;;;;;4953865;28;20230;-77
2023/08/25 03:40:58;;;;;;;16.63;3.75;;;;;;;;;;4944426;28;20230;-77
2023/08/25 03:43:25;;;;;;;24.50;6.18;;;;;;;;;;4953868;28;20244;-77
2023/08/25 03:45:51;;;;;;;28.02;5.55;;;;;;;;;;4943850;28;20236;-76
2023/08/25 03:48:18;;;;;;;21.50;5.43;;;;;;;;;;4963999;28;20264;-76
2023/08/25 03:50:47;;;;;;;22.05;5.40;;;;;;;;;;4954032;28;20225;-77
2023/08/25 03:53:15;;;;;;;32.15;6.68;;;;;;;;;;4932979;28;20239;-77
2023/08/25 03:55:41;;;;;;;35.95;8.20;;;;;;;;;;4950671;28;21427;-75
2023/08/25 03:58:08;;;;;;;26.23;6.15;;;;;;;;;;4952431;28;20279;-76
2023/08/25 04:00:34;;;;;;;33.33;8.95;;;;;;;;;;4947396;28;20380;-76
2023/08/25 04:03:03;;;;;;;25.15;5.95;;;;;;;;;;4951785;28;20240;-77
2023/08/25 04:05:30;;;;;;;25.15;6.35;;;;;;;;;;4949547;28;20264;-77
2023/08/25 04:07:57;;;;;;;30.30;6.30;;;;;;;;;;4953980;28;20228;-77
2023/08/25 04:10:23;;;;;;;22.52;5.25;;;;;;;;;;4949373;28;20284;-76
2023/08/25 04:12:50;;;;;;;21.85;5.35;;;;;;;;;;4957575;28;20233;-77
2023/08/25 04:15:19;;;;;;;18.52;4.72;;;;;;;;;;4956327;28;20267;-78
2023/08/25 04:17:46;;;;;;;12.27;3.83;;;;;;;;;;4952581;28;20245;-76
2023/08/25 04:20:14;;;;;;;20.42;5.68;;;;;;;;;;4955811;28;20229;-77
2023/08/25 04:22:43;;;;;;;39.63;10.55;;;;;;;;;;4951635;28;20239;-76
2023/08/25 04:25:09;;;;;;;29.50;6.32;;;;;;;;;;4952981;28;20229;-77
2023/08/25 04:30:22;;;;;;;41.00;10.10;;;;;;;;;;5251943;23;20223;-79
2023/08/25 04:32:49;;;;;;;20.80;5.07;;;;;;;;;;4964465;28;20241;-78
2023/08/25 04:35:16;;;;;;;20.63;4.90;;;;;;;;;;4975383;28;20228;-79
2023/08/25 04:37:47;;;;;;;20.85;5.35;;;;;;;;;;4968941;28;20240;-80
2023/08/25 04:40:14;;;;;;;24.33;5.88;;;;;;;;;;4989302;28;20682;-81
2023/08/25 04:42:41;;;;;;;25.27;6.45;;;;;;;;;;4990063;28;20239;-79
2023/08/25 04:45:11;;;;;;;23.90;5.60;;;;;;;;;;5003019;28;20258;-80
2023/08/25 04:47:37;;;;;;;39.38;9.82;;;;;;;;;;4992124;28;20231;-79
2023/08/25 04:50:06;;;;;;;24.55;5.47;;;;;;;;;;4990647;28;20312;-76
2023/08/25 04:52:34;;;;;;;49.15;7.32;;;;;;;;;;4988112;28;20239;-77
2023/08/25 04:55:05;;;;;;;28.85;5.97;;;;;;;;;;4993240;28;20230;-78
2023/08/25 04:57:32;;;;;;;45.80;10.20;;;;;;;;;;4999553;28;20232;-77
2023/08/25 04:59:58;;;;;;;25.85;5.53;;;;;;;;;;4987102;28;20235;-78
2023/08/25 05:02:25;;;;;;;29.23;6.80;;;;;;;;;;4990676;28;20763;-78
2023/08/25 05:04:51;;;;;;;27.50;6.45;;;;;;;;;;5003527;28;20227;-77
2023/08/25 05:07:18;;;;;;;28.13;6.18;;;;;;;;;;5003259;28;20250;-78
2023/08/25 05:09:45;;;;;;;23.70;5.40;;;;;;;;;;4992221;28;20398;-77
2023/08/25 05:12:11;;;;;;;31.67;6.65;;;;;;;;;;4995404;28;20230;-77
2023/08/25 05:14:38;;;;;;;78.22;14.35;;;;;;;;;;4990583;28;20314;-77
2023/08/25 05:17:05;;;;;;;22.33;4.90;;;;;;;;;;4994394;28;20230;-77
2023/08/25 05:19:31;;;;;;;43.90;9.60;;;;;;;;;;4992351;28;20254;-76
2023/08/25 05:21:58;;;;;;;20.00;4.88;;;;;;;;;;4997502;28;20235;-78
2023/08/25 05:24:25;;;;;;;30.83;6.40;;;;;;;;;;4982565;28;20235;-78
2023/08/25 05:26:52;;;;;;;20.35;5.20;;;;;;;;;;4996978;28;20224;-77
2023/08/25 05:29:19;;;;;;;18.50;4.28;;;;;;;;;;4996192;28;20243;-78
2023/08/25 05:31:46;;;;;;;18.52;4.28;;;;;;;;;;4987708;28;20702;-77
2023/08/25 05:34:12;;;;;;;20.63;4.70;;;;;;;;;;4976733;28;20223;-78
2023/08/25 05:36:39;;;;;;;38.72;8.80;;;;;;;;;;4989964;28;20240;-77
2023/08/25 05:39:06;;;;;;;30.83;6.53;;;;;;;;;;5000613;28;20230;-77
2023/08/25 05:41:34;;;;;;;32.53;7.63;;;;;;;;;;4993163;28;20220;-77
2023/08/25 05:44:01;;;;;;;23.90;4.95;;;;;;;;;;4984353;28;20238;-78
2023/08/25 05:46:28;;;;;;;29.13;6.90;;;;;;;;;;4993263;28;20220;-76
2023/08/25 05:48:55;;;;;;;17.98;3.72;;;;;;;;;;4999359;28;20522;-77
2023/08/25 05:51:23;;;;;;;32.33;6.18;;;;;;;;;;4994207;28;20234;-75
2023/08/25 05:53:49;;;;;;;47.20;10.00;;;;;;;;;;4997434;28;20309;-78
2023/08/25 05:56:16;;;;;;;125.03;115.20;;;;;;;;;;5005539;28;20231;-77
2023/08/25 05:58:43;;;;;;;194.55;182.23;;;;;;;;;;4998134;28;20235;-78
2023/08/25 06:01:10;;;;;;;198.45;184.30;;;;;;;;;;5002011;28;20670;-78
2023/08/25 06:03:37;;;;;;;145.63;133.60;;;;;;;;;;4992250;28;20282;-78
2023/08/25 06:06:04;;;;;;;89.30;81.38;;;;;;;;;;4999859;28;20227;-77
2023/08/25 06:08:31;;;;;;;67.90;54.67;;;;;;;;;;4988938;28;20224;-77
2023/08/25 06:10:57;;;;;;;40.58;24.63;;;;;;;;;;5006128;28;20223;-77
2023/08/25 06:13:26;;;;;;;175.10;163.43;;;;;;;;;;5001620;28;20238;-77
2023/08/25 06:15:53;;;;;;;43.95;34.80;;;;;;;;;;5006306;28;20238;-77
2023/08/25 06:18:19;;;;;;;54.35;46.25;;;;;;;;;;5003042;28;20224;-78
2023/08/25 06:20:46;;;;;;;36.22;24.27;;;;;;;;;;4997553;28;20783;-76
2023/08/25 06:23:14;;;;;;;41.88;15.60;;;;;;;;;;4999923;28;20232;-77
2023/08/25 06:25:42;;;;;;;86.88;77.90;;;;;;;;;;4982326;28;20247;-77
2023/08/25 06:28:08;;;;;;;42.63;8.35;;;;;;;;;;4986764;28;20234;-76
2023/08/25 06:30:35;;;;;;;75.80;15.63;;;;;;;;;;4995038;28;20654;-77
2023/08/25 06:33:02;;;;;;;28.35;5.88;;;;;;;;;;5000248;28;20238;-77
2023/08/25 06:35:29;;;;;;;44.10;10.20;;;;;;;;;;4995265;28;20266;-77
2023/08/25 06:37:56;;;;;;;19.50;4.40;;;;;;;;;;4983596;28;20250;-77
2023/08/25 06:40:22;;;;;;;19.98;4.18;;;;;;;;;;4997335;28;20231;-75
2023/08/25 06:42:49;;;;;;;21.10;4.60;;;;;;;;;;4998685;28;20685;-77
2023/08/25 06:45:15;;;;;;;30.40;6.43;;;;;;;;;;4999086;28;20350;-76
2023/08/25 06:47:44;;;;;;;18.70;3.80;;;;;;;;;;4970026;28;21799;-76
2023/08/25 06:50:11;;;;;;;30.75;6.43;;;;;;;;;;4979227;28;20322;-75
2023/08/25 06:52:37;;;;;;;39.17;9.07;;;;;;;;;;4984962;28;20227;-75
2023/08/25 06:55:04;;;;;;;28.48;5.63;;;;;;;;;;4992171;28;20240;-76
2023/08/25 06:57:31;;;;;;;34.47;8.27;;;;;;;;;;4990445;28;20236;-75
2023/08/25 06:59:58;;;;;;;27.63;5.57;;;;;;;;;;4981616;28;20242;-77
2023/08/25 07:02:26;;;;;;;36.42;7.53;;;;;;;;;;4976957;28;20235;-77
2023/08/25 07:04:53;;;;;;;37.22;7.93;;;;;;;;;;4997910;28;20244;-77
2023/08/25 07:07:26;;;;;;;27.45;5.75;;;;;;;;;;4992185;28;20242;-76
2023/08/25 07:09:53;;;;;;;42.05;9.10;;;;;;;;;;4898125;28;20262;-77
2023/08/25 07:12:20;;;;;;;31.77;6.68;;;;;;;;;;4955884;28;20281;-76
2023/08/25 07:14:47;;;;;;;22.83;4.88;;;;;;;;;;4995982;28;20224;-77
2023/08/25 07:17:13;;;;;;;31.38;6.20;;;;;;;;;;4996258;28;20223;-77
2023/08/25 07:19:41;;;;;;;36.85;8.45;;;;;;;;;;4984429;28;20247;-75
2023/08/25 07:22:08;;;;;;;33.72;6.70;;;;;;;;;;4996887;28;20231;-77
2023/08/25 07:24:35;;;;;;;43.95;9.85;;;;;;;;;;4972809;28;20294;-76
2023/08/25 07:27:01;;;;;;;29.35;7.15;;;;;;;;;;4977778;28;20239;-76
2023/08/25 07:29:28;;;;;;;41.35;9.82;;;;;;;;;;4978715;28;20234;-76
2023/08/25 07:31:54;;;;;;;28.23;6.13;;;;;;;;;;4994064;28;20236;-77
2023/08/25 07:34:21;;;;;;;32.50;6.25;;;;;;;;;;4998116;28;20263;-76
2023/08/25 07:36:48;;;;;;;27.02;5.82;;;;;;;;;;4994091;28;20231;-77
2023/08/25 07:39:14;;;;;;;46.03;9.25;;;;;;;;;;4994989;28;20243;-76
2023/08/25 07:41:41;;;;;;;41.20;9.18;;;;;;;;;;4992698;28;20228;-75
2023/08/25 07:44:08;;;;;;;30.63;6.75;;;;;;;;;;4998475;28;20236;-74
2023/08/25 07:46:37;;;;;;;37.33;9.63;;;;;;;;;;4976290;28;20277;-75
2023/08/25 07:49:10;;;;;;;25.27;5.40;;;;;;;;;;4997968;28;20263;-76
2023/08/25 07:51:37;;;;;;;35.13;7.93;;;;;;;;;;4994669;28;20224;-77
2023/08/25 07:54:06;;;;;;;32.10;6.47;;;;;;;;;;4994767;28;20238;-75
2023/08/25 07:56:32;;;;;;;63.97;14.70;;;;;;;;;;4984790;28;20600;-76
2023/08/25 07:58:59;;;;;;;40.85;8.70;;;;;;;;;;4980983;28;20232;-74
2023/08/25 08:01:25;;;;;;;33.17;6.93;;;;;;;;;;4961175;28;20257;-74
2023/08/25 08:03:52;;;;;;;31.70;6.75;;;;;;;;;;4972081;28;20235;-75
2023/08/25 08:06:19;;;;;;;36.42;7.80;;;;;;;;;;4958666;28;20236;-74
2023/08/25 08:08:46;;;;;;;27.48;5.70;;;;;;;;;;4871063;28;20243;-75
2023/08/25 08:11:13;;;;;;;34.45;6.63;;;;;;;;;;4987088;28;20230;-73
2023/08/25 08:13:40;;;;;;;61.55;13.68;;;;;;;;;;4990648;28;20233;-74
2023/08/25 08:16:06;;;;;;;60.95;11.95;;;;;;;;;;4983394;28;20227;-75
2023/08/25 08:18:33;;;;;;;58.85;13.07;;;;;;;;;;4987798;28;20235;-75
2023/08/25 08:20:59;;;;;;;54.17;10.85;;;;;;;;;;4971547;28;20236;-75
2023/08/25 08:23:26;;;;;;;51.45;11.30;;;;;;;;;;4977989;28;20324;-75
2023/08/25 08:25:54;;;;;;;48.70;10.07;;;;;;;;;;4982991;28;20555;-75
2023/08/25 08:28:20;;;;;;;52.10;10.40;;;;;;;;;;4975763;28;20240;-75
2023/08/25 08:30:47;;;;;;;37.65;7.93;;;;;;;;;;4980589;28;20231;-76
2023/08/25 08:33:15;;;;;;;44.50;10.23;;;;;;;;;;4994158;28;20243;-76
2023/08/25 08:35:42;;;;;;;48.53;10.73;;;;;;;;;;4988203;28;20227;-75
2023/08/25 08:38:08;;;;;;;51.95;10.60;;;;;;;;;;4969846;28;20323;-76
2023/08/25 08:40:35;;;;;;;59.88;13.68;;;;;;;;;;4967931;28;20235;-76
2023/08/25 08:43:02;;;;;;;30.77;6.32;;;;;;;;;;4991398;28;20229;-76
2023/08/25 08:45:34;;;;;;;74.47;15.23;;;;;;;;;;4986338;28;20234;-76
2023/08/25 08:48:00;;;;;;;29.38;6.60;;;;;;;;;;4997387;28;20231;-75
2023/08/25 08:50:28;;;;;;;50.03;11.68;;;;;;;;;;4986199;28;20305;-76
2023/08/25 08:52:55;;;;;;;27.80;5.43;;;;;;;;;;4978018;28;20231;-74
2023/08/25 08:55:22;;;;;;;38.67;7.78;;;;;;;;;;4974282;28;20231;-75
2023/08/25 08:57:49;;;;;;;21.42;4.65;;;;;;;;;;4992571;28;20241;-76
2023/08/25 09:00:18;;;;;;;140.15;130.90;;;;;;;;;;5000545;28;20239;-77
2023/08/25 09:02:48;;;;;;;141.80;133.40;;;;;;;;;;4989802;28;20280;-76
2023/08/25 09:05:15;;;;;;;29.98;6.43;;;;;;;;;;4978299;28;20358;-76
2023/08/25 09:07:43;;;;;;;30.13;10.00;;;;;;;;;;4993571;28;20320;-76
2023/08/25 09:10:10;;;;;;;145.60;135.40;;;;;;;;;;4999996;28;20273;-76
2023/08/25 09:12:37;;;;;;;70.57;63.45;;;;;;;;;;4994293;28;20314;-75
2023/08/25 09:15:06;;;;;;;206.20;192.30;;;;;;;;;;4992976;28;20228;-77
2023/08/25 09:17:35;;;;;;;79.90;67.35;;;;;;;;;;4971745;28;20253;-77
2023/08/25 09:20:04;;;;;;;31.77;7.38;;;;;;;;;;4989405;28;20342;-77
2023/08/25 09:22:30;;;;;;;51.20;16.48;;;;;;;;;;4964152;28;20244;-77
2023/08/25 09:24:59;;;;;;;26.77;6.35;;;;;;;;;;4964351;28;20236;-76
2023/08/25 09:27:26;;;;;;;50.15;21.98;;;;;;;;;;4992722;28;20241;-78
2023/08/25 09:29:57;;;;;;;88.95;80.90;;;;;;;;;;4995332;28;20235;-76
2023/08/25 09:32:24;;;;;;;40.47;17.17;;;;;;;;;;5007057;28;20233;-77
2023/08/25 09:34:51;;;;;;;48.33;33.95;;;;;;;;;;4996748;28;20321;-76
2023/08/25 09:37:17;;;;;;;213.20;199.32;;;;;;;;;;5002071;28;20234;-77
2023/08/25 09:39:45;;;;;;;175.20;164.20;;;;;;;;;;4992746;28;20235;-77
2023/08/25 09:42:11;;;;;;;119.35;109.80;;;;;;;;;;4981160;28;20226;-77
2023/08/25 09:44:38;;;;;;;60.25;33.50;;;;;;;;;;4992183;28;20219;-77
2023/08/25 09:47:08;;;;;;;64.05;56.58;;;;;;;;;;5004514;28;20230;-78
2023/08/25 09:49:39;;;;;;;109.35;97.75;;;;;;;;;;4993585;28;20255;-77
2023/08/25 09:52:06;;;;;;;68.18;61.20;;;;;;;;;;5000870;28;20321;-77
2023/08/25 09:54:36;;;;;;;85.95;64.47;;;;;;;;;;4981732;28;20229;-77
2023/08/25 09:57:02;;;;;;;50.72;43.67;;;;;;;;;;5006803;28;20249;-77
2023/08/25 09:59:30;;;;;;;121.03;109.57;;;;;;;;;;4992082;28;20697;-78
2023/08/25 10:01:57;;;;;;;217.73;203.80;;;;;;;;;;5004353;28;20310;-78
2023/08/25 10:04:24;;;;;;;133.00;122.88;;;;;;;;;;4999550;28;20239;-77
2023/08/25 10:06:51;;;;;;;37.75;10.93;;;;;;;;;;4999045;28;20254;-78
2023/08/25 10:09:18;;;;;;;40.25;16.50;;;;;;;;;;5004483;28;20277;-78
2023/08/25 10:11:45;;;;;;;145.65;136.07;;;;;;;;;;5002097;28;20229;-77
2023/08/25 10:14:13;;;;;;;312.75;293.85;;;;;;;;;;4999749;28;20315;-78
2023/08/25 10:16:41;;;;;;;75.18;24.02;;;;;;;;;;4997034;28;20367;-78
2023/08/25 10:19:16;;;;;;;37.88;25.65;;;;;;;;;;5002331;28;20263;-77
2023/08/25 10:21:44;;;;;;;38.42;11.57;;;;;;;;;;4998528;28;20294;-78
2023/08/25 10:24:11;;;;;;;33.58;7.70;;;;;;;;;;5002617;28;20238;-77
2023/08/25 10:26:38;;;;;;;109.63;19.10;;;;;;;;;;4972166;28;20242;-77
2023/08/25 10:29:05;;;;;;;26.05;5.20;;;;;;;;;;4994233;28;20240;-78
2023/08/25 10:31:32;;;;;;;41.60;9.23;;;;;;;;;;4995016;28;20227;-80
2023/08/25 10:34:00;;;;;;;41.65;8.15;;;;;;;;;;4995759;28;20250;-78
2023/08/25 10:36:26;;;;;;;45.17;9.50;;;;;;;;;;4993978;28;20230;-78
2023/08/25 10:38:55;;;;;;;30.38;5.95;;;;;;;;;;4995805;28;20243;-79
2023/08/25 10:41:23;;;;;;;31.02;6.50;;;;;;;;;;4994784;28;20285;-84
2023/08/25 10:43:54;;;;;;;20.15;4.50;;;;;;;;;;4997110;28;20306;-79
2023/08/25 10:46:24;;;;;;;22.52;4.43;;;;;;;;;;4992304;28;20307;-79
2023/08/25 10:49:11;;;;;;;27.40;5.53;;;;;;;;;;4990611;28;20769;-80
2023/08/25 10:51:38;;;;;;;54.35;12.05;;;;;;;;;;4981417;28;20227;-79
2023/08/25 10:54:14;;;;;;;38.03;7.50;;;;;;;;;;4994307;28;20314;-79
2023/08/25 10:56:40;;;;;;;67.88;13.27;;;;;;;;;;4985018;28;20258;-81
2023/08/25 10:59:11;;;;;;;35.83;7.00;;;;;;;;;;4976884;28;20234;-78
2023/08/25 11:01:38;;;;;;;41.83;9.88;;;;;;;;;;4997874;28;20227;-79
2023/08/25 11:04:05;;;;;;;30.52;7.65;;;;;;;;;;4998400;28;20266;-80
2023/08/25 11:06:36;;;;;;;99.97;90.25;;;;;;;;;;4993785;28;20223;-80
2023/08/25 11:09:03;;;;;;;131.18;120.68;;;;;;;;;;4998187;28;20333;-80
2023/08/25 11:11:30;;;;;;;83.25;58.05;;;;;;;;;;4991352;28;20229;-80
2023/08/25 11:13:58;;;;;;;34.30;14.52;;;;;;;;;;5004390;28;20285;-81
2023/08/25 11:16:24;;;;;;;142.48;131.20;;;;;;;;;;4995995;28;20239;-80
2023/08/25 11:18:51;;;;;;;49.85;44.63;;;;;;;;;;5001669;28;20586;-81
2023/08/25 11:21:22;;;;;;;51.53;28.02;;;;;;;;;;4990876;28;20232;-79
2023/08/25 11:23:48;;;;;;;37.83;7.32;;;;;;;;;;4975761;28;20321;-82
2023/08/25 11:26:16;;;;;;;41.25;8.77;;;;;;;;;;4996215;28;20246;-80
2023/08/25 11:28:45;;;;;;;35.78;7.15;;;;;;;;;;4989548;28;20230;-82
2023/08/25 11:31:12;;;;;;;31.95;6.47;;;;;;;;;;4997988;28;20277;-81
2023/08/25 11:33:38;;;;;;;61.00;13.77;;;;;;;;;;4988393;28;20228;-82
2023/08/25 11:36:05;;;;;;;28.73;6.28;;;;;;;;;;4997852;28;20281;-81
2023/08/25 11:38:32;;;;;;;45.53;10.05;;;;;;;;;;4990479;28;20289;-80
2023/08/25 11:40:58;;;;;;;36.88;7.50;;;;;;;;;;4998496;28;20227;-80
2023/08/25 11:43:36;;;;;;;43.28;9.25;;;;;;;;;;4995433;28;20256;-82
2023/08/25 11:46:05;;;;;;;32.90;17.08;;;;;;;;;;4986658;28;20245;-80
2023/08/25 11:48:34;;;;;;;64.30;17.40;;;;;;;;;;4975648;28;20239;-81
2023/08/25 11:51:01;;;;;;;30.77;7.32;;;;;;;;;;4997350;28;20239;-80
2023/08/25 11:53:27;;;;;;;46.17;11.10;;;;;;;;;;4976467;28;20235;-82
2023/08/25 11:56:02;;;;;;;29.13;5.95;;;;;;;;;;4999971;28;20241;-80
2023/08/25 11:58:29;;;;;;;51.47;12.15;;;;;;;;;;4978221;28;20242;-81
2023/08/25 12:01:00;;;;;;;80.82;74.32;;;;;;;;;;5000894;28;20227;-80
2023/08/25 12:03:27;;;;;;;113.20;102.65;;;;;;;;;;4993817;28;20274;-80
2023/08/25 12:05:54;;;;;;;151.50;139.77;;;;;;;;;;4996201;28;20255;-80
2023/08/25 12:08:20;;;;;;;296.05;274.88;;;;;;;;;;4999782;28;20654;-81
2023/08/25 12:10:47;;;;;;;185.57;173.00;;;;;;;;;;4990794;28;20238;-81
2023/08/25 12:13:13;;;;;;;50.88;37.65;;;;;;;;;;4982443;28;20227;-78
2023/08/25 12:15:41;;;;;;;80.20;30.83;;;;;;;;;;5001026;28;20234;-81
2023/08/25 12:18:11;;;;;;;35.47;7.07;;;;;;;;;;5000972;28;20304;-81
2023/08/25 12:20:41;;;;;;;58.13;12.60;;;;;;;;;;4975157;28;20231;-82
2023/08/25 12:23:08;;;;;;;106.30;97.75;;;;;;;;;;4998609;28;20234;-80
2023/08/25 12:25:35;;;;;;;155.25;142.35;;;;;;;;;;4977301;28;20231;-80
2023/08/25 12:28:01;;;;;;;153.60;142.55;;;;;;;;;;4999527;28;20230;-81
2023/08/25 12:30:30;;;;;;;106.32;96.22;;;;;;;;;;4994105;28;20755;-80
2023/08/25 12:32:56;;;;;;;114.30;105.78;;;;;;;;;;4997851;28;20318;-80
2023/08/25 12:35:23;;;;;;;93.88;86.47;;;;;;;;;;4994615;28;20318;-79
2023/08/25 12:37:49;;;;;;;105.10;97.18;;;;;;;;;;4992765;28;20239;-80
2023/08/25 12:40:20;;;;;;;56.92;50.70;;;;;;;;;;5000537;28;20238;-79
2023/08/25 12:42:48;;;;;;;50.58;44.20;;;;;;;;;;4992466;28;20276;-80
2023/08/25 12:45:14;;;;;;;55.53;33.00;;;;;;;;;;4994772;28;20273;-78
2023/08/25 12:47:41;;;;;;;96.28;16.88;;;;;;;;;;4987976;28;20219;-79
2023/08/25 12:50:08;;;;;;;45.80;8.55;;;;;;;;;;4995293;28;20732;-79
2023/08/25 12:52:36;;;;;;;73.97;12.55;;;;;;;;;;4995608;28;20231;-80
2023/08/25 12:55:03;;;;;;;26.67;5.32;;;;;;;;;;4999322;28;20230;-80
2023/08/25 12:57:46;;;;;;;22.58;4.50;;;;;;;;;;4988852;28;20231;-80
2023/08/25 13:00:13;;;;;;;24.15;4.78;;;;;;;;;;4978055;28;20289;-80
2023/08/25 13:02:40;;;;;;;83.30;15.10;;;;;;;;;;4997024;28;20219;-79
2023/08/25 13:05:09;;;;;;;22.35;4.60;;;;;;;;;;4985793;28;20234;-81
2023/08/25 13:07:37;;;;;;;75.53;14.27;;;;;;;;;;4997065;28;20246;-79
2023/08/25 13:10:05;;;;;;;30.80;6.18;;;;;;;;;;5002274;28;20239;-81
2023/08/25 13:12:32;;;;;;;63.80;12.30;;;;;;;;;;4996537;28;20241;-80
2023/08/25 13:15:00;;;;;;;29.77;6.75;;;;;;;;;;5004792;28;20249;-81
2023/08/25 13:17:27;;;;;;;153.65;141.35;;;;;;;;;;4865637;28;20254;-79
2023/08/25 13:19:54;;;;;;;83.10;75.65;;;;;;;;;;4816692;28;20241;-80
2023/08/25 13:22:21;;;;;;;48.00;39.90;;;;;;;;;;4820531;28;20663;-81
2023/08/25 13:24:48;;;;;;;70.45;64.05;;;;;;;;;;4940351;28;20234;-81
2023/08/25 13:27:15;;;;;;;78.95;71.72;;;;;;;;;;5001538;28;20772;-79
2023/08/25 13:29:42;;;;;;;91.47;82.20;;;;;;;;;;4998279;28;20238;-81
2023/08/25 13:32:09;;;;;;;60.65;55.17;;;;;;;;;;5002354;28;20246;-81
2023/08/25 13:34:35;;;;;;;91.78;32.15;;;;;;;;;;4994555;28;20239;-82
2023/08/25 13:37:03;;;;;;;86.15;70.07;;;;;;;;;;5000908;28;20235;-82
2023/08/25 13:39:31;;;;;;;190.63;172.00;;;;;;;;;;4998374;28;20234;-81
2023/08/25 13:41:57;;;;;;;267.15;249.30;;;;;;;;;;5007826;28;20272;-80
2023/08/25 13:44:24;;;;;;;248.63;230.38;;;;;;;;;;4998312;28;20915;-79
2023/08/25 13:46:50;;;;;;;209.40;194.80;;;;;;;;;;5003821;28;20255;-80
2023/08/25 13:49:17;;;;;;;216.30;201.75;;;;;;;;;;5003812;28;20231;-81
2023/08/25 13:51:44;;;;;;;159.65;147.63;;;;;;;;;;5000451;28;20234;-83
2023/08/25 13:54:11;;;;;;;138.13;127.28;;;;;;;;;;5004792;28;20231;-80
2023/08/25 13:56:38;;;;;;;118.63;95.30;;;;;;;;;;5003325;28;20607;-81
2023/08/25 13:59:05;;;;;;;206.18;190.98;;;;;;;;;;5003650;28;20259;-81
2023/08/25 14:01:32;;;;;;;112.13;100.45;;;;;;;;;;4999638;28;20235;-81
2023/08/25 14:03:58;;;;;;;209.00;194.85;;;;;;;;;;5005075;28;20238;-79
2023/08/25 14:06:25;;;;;;;82.40;66.95;;;;;;;;;;4996004;28;20239;-79
2023/08/25 14:08:52;;;;;;;52.15;41.47;;;;;;;;;;5002829;28;20223;-82
2023/08/25 14:11:18;;;;;;;64.97;55.70;;;;;;;;;;5008253;28;20230;-80
2023/08/25 14:13:45;;;;;;;79.30;67.78;;;;;;;;;;4995848;28;20235;-80
2023/08/25 14:16:12;;;;;;;127.43;115.68;;;;;;;;;;5005878;28;20697;-82
2023/08/25 14:18:39;;;;;;;79.70;56.50;;;;;;;;;;4998413;28;20230;-82